createdAt,value
2022-08-19T00:04:41.429Z,19.30
2022-08-19T00:09:44.260Z,19.20
2022-08-19T00:14:47.157Z,18.90
2022-08-19T00:19:50.164Z,18.80
2022-08-19T00:24:52.978Z,18.70
2022-08-19T00:29:55.759Z,18.60
2022-08-19T00:34:58.607Z,18.50
2022-08-19T00:40:01.341Z,18.50
2022-08-19T00:45:09.961Z,18.50
2022-08-19T00:50:16.320Z,18.40
2022-08-19T00:55:25.824Z,18.40
2022-08-19T01:00:30.003Z,18.30
2022-08-19T01:05:33.233Z,18.20
2022-08-19T01:10:41.849Z,18.20
2022-08-19T01:15:49.137Z,18.30
2022-08-19T01:20:53.408Z,18.10
2022-08-19T01:25:57.032Z,17.90
2022-08-19T01:31:01.785Z,17.90
2022-08-19T01:36:15.051Z,17.70
2022-08-19T01:41:19.630Z,17.80
2022-08-19T01:46:25.048Z,17.80
2022-08-19T01:51:28.802Z,17.60
2022-08-19T01:56:41.560Z,17.60
2022-08-19T02:01:44.868Z,17.60
2022-08-19T02:06:47.615Z,17.70
2022-08-19T02:11:50.659Z,17.60
2022-08-19T02:16:53.650Z,17.60
2022-08-19T02:21:56.339Z,17.50
2022-08-19T02:26:59.978Z,17.50
2022-08-19T02:32:02.956Z,17.40
2022-08-19T02:37:05.829Z,17.40
2022-08-19T02:42:08.643Z,17.40
2022-08-19T02:47:11.844Z,17.40
2022-08-19T02:52:15.236Z,17.40
2022-08-19T02:57:17.986Z,17.30
2022-08-19T03:02:21.010Z,17.20
2022-08-19T03:07:23.776Z,17.20
2022-08-19T03:12:26.537Z,17.20
2022-08-19T03:17:29.498Z,17.30
2022-08-19T03:22:32.221Z,17.20
2022-08-19T03:27:35.022Z,17.10
2022-08-19T03:32:52.465Z,17.20
2022-08-19T03:38:00.703Z,17.30
2022-08-19T03:43:03.796Z,17.30
2022-08-19T03:48:06.639Z,17.20
2022-08-19T03:53:10.135Z,17.30
2022-08-19T03:58:12.782Z,17.30
2022-08-19T04:03:15.638Z,17.20
2022-08-19T04:08:21.333Z,17.30
2022-08-19T04:13:24.050Z,17.30
2022-08-19T04:18:26.979Z,17.40
2022-08-19T04:23:29.819Z,17.50
2022-08-19T04:28:32.494Z,17.50
2022-08-19T04:33:36.684Z,17.60
2022-08-19T04:38:39.389Z,17.70
2022-08-19T04:43:42.146Z,17.90
2022-08-19T04:48:49.551Z,18.10
2022-08-19T04:53:53.789Z,18.40
2022-08-19T04:58:57.906Z,18.50
2022-08-19T05:04:02.837Z,18.80
2022-08-19T05:09:06.769Z,19.00
2022-08-19T05:14:10.916Z,19.40
2022-08-19T05:19:33.615Z,19.90
2022-08-19T05:24:47.454Z,20.20
2022-08-19T05:30:00.253Z,20.70
2022-08-19T05:35:04.359Z,21.20
2022-08-19T05:40:07.740Z,21.50
2022-08-19T05:45:11.700Z,21.90
2022-08-19T05:50:16.580Z,22.40
2022-08-19T05:55:21.418Z,22.70
2022-08-19T06:00:24.910Z,23.00
2022-08-19T06:05:27.710Z,23.50
2022-08-19T06:10:31.310Z,23.90
2022-08-19T06:15:34.562Z,24.20
2022-08-19T06:20:55.119Z,24.50
2022-08-19T06:25:58.871Z,24.90
2022-08-19T06:31:08.051Z,24.90
2022-08-19T06:36:25.901Z,25.30
2022-08-19T06:41:29.871Z,25.30
2022-08-19T06:46:33.572Z,25.50
2022-08-19T06:51:42.825Z,25.70
2022-08-19T06:56:48.051Z,25.80
2022-08-19T07:01:53.822Z,26.10
2022-08-19T07:07:12.460Z,26.40
2022-08-19T07:12:23.139Z,26.50
2022-08-19T07:17:26.951Z,26.70
2022-08-19T07:22:29.772Z,27.00
2022-08-19T07:27:33.624Z,27.10
2022-08-19T07:32:36.739Z,27.40
2022-08-19T07:37:40.862Z,27.60
2022-08-19T07:42:44.498Z,27.80
2022-08-19T07:47:51.053Z,27.90
2022-08-19T07:52:54.340Z,28.10
2022-08-19T07:57:57.230Z,28.20
2022-08-19T08:03:00.244Z,28.70
2022-08-19T08:08:35.484Z,29.10
2022-08-19T08:13:39.063Z,29.60
2022-08-19T08:18:50.264Z,29.60
2022-08-19T08:23:56.883Z,30.40
2022-08-19T08:29:00.216Z,30.80
2022-08-19T08:34:03.137Z,31.60
2022-08-19T08:39:06.120Z,31.60
2022-08-19T08:44:20.223Z,32.10
2022-08-19T08:49:51.155Z,32.60
2022-08-19T08:54:58.481Z,32.30
2022-08-19T09:00:06.798Z,32.70
2022-08-19T09:05:25.854Z,33.50
2022-08-19T09:10:55.301Z,33.80
2022-08-19T09:16:16.585Z,33.30
2022-08-19T09:21:22.909Z,34.20
2022-08-19T09:26:47.147Z,34.10
2022-08-19T09:31:52.558Z,35.10
2022-08-19T09:36:56.597Z,35.20
2022-08-19T09:41:59.484Z,35.70
2022-08-19T09:47:03.173Z,36.50
2022-08-19T09:52:06.789Z,36.20
2022-08-19T09:57:09.760Z,35.90
2022-08-19T10:02:13.201Z,36.20
2022-08-19T10:07:16.640Z,36.00
2022-08-19T10:12:20.589Z,35.50
2022-08-19T10:17:27.569Z,36.20
2022-08-19T10:22:37.000Z,37.40
2022-08-19T10:27:40.432Z,36.70
2022-08-19T10:32:46.348Z,35.70
2022-08-19T10:37:57.338Z,35.70
2022-08-19T10:43:05.009Z,35.30
2022-08-19T10:48:08.197Z,36.30
2022-08-19T10:53:15.042Z,36.60
2022-08-19T10:58:23.719Z,36.80
2022-08-19T11:03:29.201Z,37.10
2022-08-19T11:08:33.772Z,37.30
2022-08-19T11:13:39.085Z,36.90
2022-08-19T11:18:48.280Z,37.70
2022-08-19T11:23:53.405Z,37.70
2022-08-19T11:28:57.091Z,37.50
2022-08-19T11:34:02.729Z,37.90
2022-08-19T11:39:08.193Z,37.90
2022-08-19T11:44:11.079Z,37.40
2022-08-19T11:49:16.079Z,37.00
2022-08-19T11:54:19.610Z,37.70
2022-08-19T11:59:22.548Z,37.40
2022-08-19T12:04:25.790Z,37.60
2022-08-19T12:09:28.608Z,37.70
2022-08-19T12:14:33.917Z,37.80
2022-08-19T12:19:38.740Z,37.60
2022-08-19T12:24:41.968Z,37.90
2022-08-19T12:29:44.738Z,37.90
2022-08-19T12:34:48.629Z,37.60
2022-08-19T12:39:51.712Z,38.30
2022-08-19T12:44:54.695Z,37.70
2022-08-19T12:49:57.814Z,37.60
2022-08-19T12:55:01.110Z,37.00
2022-08-19T13:00:14.726Z,37.90
2022-08-19T13:05:24.128Z,37.40
2022-08-19T13:10:35.977Z,37.90
2022-08-19T13:15:41.650Z,37.50
2022-08-19T13:20:52.429Z,37.40
2022-08-19T13:26:04.831Z,37.50
2022-08-19T13:31:26.158Z,37.10
2022-08-19T13:36:28.969Z,37.00
2022-08-19T13:41:32.238Z,36.70
2022-08-19T13:46:35.171Z,37.00
2022-08-19T13:51:41.266Z,36.50
2022-08-19T13:56:47.249Z,36.90
2022-08-19T14:01:50.020Z,37.20
2022-08-19T14:06:52.779Z,37.20
2022-08-19T14:11:55.711Z,37.00
2022-08-19T14:16:58.510Z,36.30
2022-08-19T14:22:01.910Z,36.40
2022-08-19T14:27:05.050Z,36.90
2022-08-19T14:32:07.962Z,36.90
2022-08-19T14:37:18.994Z,35.80
2022-08-19T14:42:22.238Z,35.60
2022-08-19T14:47:25.021Z,36.20
2022-08-19T14:52:28.790Z,36.20
2022-08-19T14:57:31.763Z,35.90
2022-08-19T15:02:35.516Z,35.00
2022-08-19T15:07:39.505Z,34.90
2022-08-19T15:12:44.257Z,34.50
2022-08-19T15:17:48.059Z,34.60
2022-08-19T15:22:51.231Z,34.70
2022-08-19T15:27:54.329Z,34.10
2022-08-19T15:32:58.860Z,34.30
2022-08-19T15:38:01.896Z,34.00
2022-08-19T15:43:04.797Z,34.20
2022-08-19T15:48:08.119Z,34.00
2022-08-19T15:53:11.396Z,33.30
2022-08-19T15:58:34.154Z,33.30
2022-08-19T16:03:55.154Z,32.80
2022-08-19T16:09:02.130Z,32.00
2022-08-19T16:14:07.522Z,31.60
2022-08-19T16:19:12.012Z,31.40
2022-08-19T16:24:17.102Z,31.10
2022-08-19T16:29:33.204Z,30.90
2022-08-19T16:34:41.781Z,30.50
2022-08-19T16:39:45.077Z,30.30
2022-08-19T16:44:48.230Z,30.10
2022-08-19T16:49:52.227Z,29.80
2022-08-19T16:54:57.839Z,29.60
2022-08-19T17:00:03.960Z,29.50
2022-08-19T17:05:08.986Z,29.50
2022-08-19T17:10:11.800Z,29.40
2022-08-19T17:15:14.560Z,29.20
2022-08-19T17:20:17.355Z,29.00
2022-08-19T17:25:20.180Z,28.90
2022-08-19T17:30:23.495Z,28.70
2022-08-19T17:35:27.610Z,28.50
2022-08-19T17:40:30.889Z,28.50
2022-08-19T17:45:36.869Z,28.40
2022-08-19T17:50:40.632Z,28.20
2022-08-19T17:55:43.422Z,28.30
2022-08-19T18:00:53.302Z,28.30
2022-08-19T18:05:57.490Z,28.30
2022-08-19T18:11:01.083Z,28.30
2022-08-19T18:16:11.221Z,28.30
2022-08-19T18:21:14.780Z,28.20
2022-08-19T18:26:17.730Z,28.20
2022-08-19T18:31:21.430Z,28.10
2022-08-19T18:36:51.955Z,28.10
2022-08-19T18:42:06.318Z,27.90
2022-08-19T18:47:27.889Z,27.50
2022-08-19T18:52:30.958Z,26.70
2022-08-19T18:57:34.459Z,25.70
2022-08-19T19:02:41.530Z,25.20
2022-08-19T19:07:44.370Z,24.80
2022-08-19T19:12:49.466Z,24.40
2022-08-19T19:17:53.612Z,24.30
2022-08-19T19:22:58.103Z,24.10
2022-08-19T19:28:01.370Z,24.00
2022-08-19T19:33:04.580Z,23.90
2022-08-19T19:38:07.720Z,23.80
2022-08-19T19:43:10.589Z,23.70
2022-08-19T19:48:16.728Z,23.60
2022-08-19T19:53:19.454Z,23.60
2022-08-19T19:58:29.149Z,23.50
2022-08-19T20:03:33.133Z,23.30
2022-08-19T20:08:55.082Z,23.10
2022-08-19T20:13:58.591Z,23.10
2022-08-19T20:19:02.100Z,22.90
2022-08-19T20:24:08.684Z,22.80
2022-08-19T20:29:39.184Z,22.70
2022-08-19T20:34:37.477Z,22.70
2022-08-19T20:39:40.483Z,22.50
2022-08-19T20:44:43.904Z,22.40
2022-08-19T20:49:46.715Z,22.40
2022-08-19T20:54:49.866Z,22.30
2022-08-19T20:59:52.646Z,22.40
2022-08-19T21:04:55.511Z,22.40
2022-08-19T21:10:03.451Z,22.30
2022-08-19T21:15:08.181Z,22.20
2022-08-19T21:20:11.139Z,22.10
2022-08-19T21:25:14.314Z,22.10
2022-08-19T21:30:17.374Z,22.10
2022-08-19T21:35:20.480Z,22.10
2022-08-19T21:40:24.346Z,21.90
2022-08-19T21:45:27.301Z,21.90
2022-08-19T21:50:32.782Z,21.90
2022-08-19T21:55:35.529Z,21.90
2022-08-19T22:00:38.888Z,21.90
2022-08-19T22:05:41.642Z,21.70
2022-08-19T22:10:44.432Z,21.80
2022-08-19T22:15:52.167Z,21.80
2022-08-19T22:20:55.063Z,21.70
2022-08-19T22:25:57.915Z,21.70
2022-08-19T22:31:01.780Z,21.70
2022-08-19T22:36:10.032Z,21.70
2022-08-19T22:41:12.863Z,21.50
2022-08-19T22:46:17.563Z,21.30
2022-08-19T22:51:38.779Z,21.20
2022-08-19T22:56:41.711Z,21.00
2022-08-19T23:01:44.713Z,21.00
2022-08-19T23:06:47.398Z,20.90
2022-08-19T23:11:51.049Z,20.90
2022-08-19T23:16:58.438Z,20.80
2022-08-19T23:22:02.070Z,20.70
2022-08-19T23:27:37.199Z,20.60
2022-08-19T23:32:40.999Z,20.60
2022-08-19T23:37:43.788Z,20.50
2022-08-19T23:42:46.869Z,20.50
2022-08-19T23:47:49.590Z,20.40
2022-08-19T23:53:00.120Z,20.20
2022-08-19T23:58:04.317Z,20.10
